Nearby METAR Reports


RPLC - Angeles/Pampanga, Philippines
Distance from station: S 166km
Updated: Fri, 20-Apr-2018 10:00pm PHT
Partly cloudy
Partly cloudy
 Wind from SSE
Wind: SSE 9 km/h
Temperature: 28°C
Heat Index: 30°C
Dew Point: 21°C
Humidity: 66%
Barometer: 1013 hPa
Clouds: Partly cloudy
Visibility: 10 km
Cloud details: Few Clouds 610 m
Partly cloudy 9144 m
2018/04/20 14:00 RPLC 201400Z 15005KT 9999 FEW020 SCT300 28/21 Q1013 NOSIG RMK A2991
RPLI - Laoag Intl Airport, Philippines
Distance from station: N 171km
Updated: Fri, 20-Apr-2018 8:00pm PHT
NOT Current
Few Clouds
Few Clouds
 Wind from S
Wind: S 4 km/h
Temperature: 29°C
Heat Index: 33°C
Dew Point: 24°C
Humidity: 74%
Barometer: 1009 hPa
Clouds: Few Clouds
Visibility: 10 km
Cloud details: Few Clouds 579 m
2018/04/20 12:00 RPLI 201200Z 18002KT 9999 FEW019 29/24 Q1009 NOSIG RMK A2980
 
RPLB - Olongapo/Subic, Philippines
Distance from station: S 205km
Updated: Fri, 20-Apr-2018 10:00pm PHT
Few Clouds
Few Clouds
 Wind from ENE
Wind: ENE 9 km/h
Temperature: 28°C
Heat Index: 32°C
Dew Point: 24°C
Humidity: 79%
Barometer: 1010 hPa
Clouds: Few Clouds
Visibility: 10 km
Cloud details: Few Clouds 610 m
2018/04/20 14:00 RPLB 201400Z 06005KT 9999 FEW020 28/24 Q1010 NOSIG RMK A2983
RPLL - Ninoy Aquino Intl Airport, Philippines
Distance from station: SSE 247km
Updated: Fri, 20-Apr-2018 10:00pm PHT
Few Clouds
Few Clouds
 Wind from ESE
Wind: ESE 9 km/h
Temperature: 29°C
Heat Index: 31°C
Dew Point: 21°C
Humidity: 62%
Barometer: 1012 hPa
Clouds: Few Clouds
Visibility: 10 km
Cloud details: Few Clouds 762 m
2018/04/20 14:00 RPLL 201400Z 12005KT 090V150 9999 FEW025 29/21 Q1012 NOSIG RMK A2988